Hopeland, PA (17533)

5:51 AM EDT on August 04, 2015 (GMT -0400)
Webster Hill | | Change Station
CLOSE
Current Station
Personal Weather Station
Location: Lititz, PA
Elevation: 482 ft
Nearby Weather Stations

Elev 482 ft 40.20 °N, 76.31 °W | Updated 14 seconds ago

Mostly Cloudy
Mostly Cloudy
67.6 °F
Feels Like 67.6 °F
N
0.0
Wind Variable Wind from SW
Gusts 0.0 mph

Today
High -- | Low -- °F
--% Chance of Precip.
Yesterday
High -- | Low -- °F
Precip. -- in
6:05 AM 8:16 PM
Waning Gibbous, 79% visible
Pressure 29.86 in
Visibility 10.0 miles
Clouds Clear
Dew Point 68 °F
Humidity 99%
Rainfall 0.27 in
Snow Depth Not available.
UV 0.0 out of 12
Pollen 6.60 out of 12
Air Quality Not available.
Flu Activity Not available.
METAR KLNS 040853Z 28006KT 10SM CLR 20/18 A2987 RMK AO2 LTG DSNT E AND SE RAE21 TSE27 SLP111 P0001 60003 T02000178 53011

More Conditions Fewer Conditions

Pressure 29.86 in
Visibility 10.0 miles
Clouds Clear
Dew Point 68 °F
Humidity 99%
Rainfall 0.27 in
Snow Depth Not available.
UV 0.0 out of 12
Pollen 6.60 out of 12
Air Quality Not available.
Flu Activity Not available.
METAR KLNS 040853Z 28006KT 10SM CLR 20/18 A2987 RMK AO2 LTG DSNT E AND SE RAE21 TSE27 SLP111 P0001 60003 T02000178 53011

More Conditions Fewer Conditions

Nowcast | as of 5:23 am EDT on August 4, 2015

An area of light to moderate rain will affect southern York and southern Lancaster counties through 6 am. A rumble or two of thunder is also possible.

×

10-Day Weather Forecast

×

Almanac

Astronomy

Aug. 04, 2015 Rise Set
Actual Time
Civil Twilight
Nautical Twilight
Astronomical Twilight
Moon
Length of Visible Light
Length of Day
Tomorrow will be .
, % of the Moon is Illuminated

Today's Extremes

State Highs State Lows

Community

WunderPhotos

Upload Photos

1,843,880 photos uploaded!

WunderBlogs® & News

Nearby

Air Quality

  Air Quality AQ Index Pollutant
Not available.

Snow Depth

Station Depth Elevation

Earthquake Activity

City Distance Mag. Time & Date
Minimum magnitude displayed is 2.5.

Coastal Water Temperatures

Place Temperature

Stations

Nearby Weather Stations

Station Location Temp. Windchill Dew Point Humidity Wind Precip. Elev Updated Type